sensor_id;sensor_type;location;lat;lon;timestamp;P1;durP1;ratioP1;P2;durP2;ratioP2
12650;SDS011;6390;49.400;8.670;2022-08-23T03:03:32;1.35;;;1.10;;
12650;SDS011;6390;49.400;8.670;2022-08-23T03:05:58;1.63;;;1.05;;
12650;SDS011;6390;49.400;8.670;2022-08-23T03:08:24;1.17;;;1.05;;
12650;SDS011;6390;49.400;8.670;2022-08-23T03:10:50;1.10;;;1.00;;
12650;SDS011;6390;49.400;8.670;2022-08-23T03:13:17;2.28;;;1.30;;
12650;SDS011;6390;49.400;8.670;2022-08-23T03:15:44;1.13;;;0.98;;
12650;SDS011;6390;49.400;8.670;2022-08-23T03:18:11;3.63;;;1.58;;
12650;SDS011;6390;49.400;8.670;2022-08-23T03:20:38;1.67;;;1.23;;
12650;SDS011;6390;49.400;8.670;2022-08-23T03:23:08;3.53;;;1.30;;
12650;SDS011;6390;49.400;8.670;2022-08-23T03:25:35;2.05;;;1.20;;
12650;SDS011;6390;49.400;8.670;2022-08-23T03:28:05;2.13;;;1.50;;
12650;SDS011;6390;49.400;8.670;2022-08-23T03:30:32;3.22;;;1.85;;
12650;SDS011;6390;49.400;8.670;2022-08-23T03:32:59;3.08;;;1.25;;
12650;SDS011;6390;49.400;8.670;2022-08-23T03:35:26;2.10;;;1.67;;
12650;SDS011;6390;49.400;8.670;2022-08-23T03:37:52;2.75;;;1.30;;
12650;SDS011;6390;49.400;8.670;2022-08-23T03:40:18;2.00;;;1.20;;
12650;SDS011;6390;49.400;8.670;2022-08-23T03:42:46;1.27;;;1.17;;
12650;SDS011;6390;49.400;8.670;2022-08-23T03:45:14;1.30;;;1.20;;
12650;SDS011;6390;49.400;8.670;2022-08-23T03:47:41;1.45;;;1.35;;
12650;SDS011;6390;49.400;8.670;2022-08-23T03:50:08;2.10;;;1.40;;
12650;SDS011;6390;49.400;8.670;2022-08-23T03:52:34;1.95;;;1.27;;
12650;SDS011;6390;49.400;8.670;2022-08-23T03:55:00;1.48;;;1.23;;
12650;SDS011;6390;49.400;8.670;2022-08-23T03:57:26;1.50;;;1.20;;
12650;SDS011;6390;49.400;8.670;2022-08-23T03:59:53;1.23;;;1.13;;
12650;SDS011;6390;49.400;8.670;2022-08-23T04:02:19;1.85;;;1.33;;
12650;SDS011;6390;49.400;8.670;2022-08-23T04:04:45;1.52;;;1.30;;
12650;SDS011;6390;49.400;8.670;2022-08-23T04:07:11;1.50;;;1.40;;
12650;SDS011;6390;49.400;8.670;2022-08-23T04:09:41;2.28;;;1.20;;
12650;SDS011;6390;49.400;8.670;2022-08-23T04:12:08;1.67;;;1.40;;
12650;SDS011;6390;49.400;8.670;2022-08-23T04:14:34;6.70;;;1.40;;
12650;SDS011;6390;49.400;8.670;2022-08-23T04:17:00;3.47;;;1.50;;
12650;SDS011;6390;49.400;8.670;2022-08-23T04:19:26;3.78;;;1.35;;
12650;SDS011;6390;49.400;8.670;2022-08-23T04:21:52;3.70;;;1.58;;
12650;SDS011;6390;49.400;8.670;2022-08-23T04:24:18;5.03;;;1.50;;
12650;SDS011;6390;49.400;8.670;2022-08-23T04:26:44;2.80;;;1.50;;
12650;SDS011;6390;49.400;8.670;2022-08-23T04:29:10;2.92;;;1.20;;
12650;SDS011;6390;49.400;8.670;2022-08-23T04:31:41;1.63;;;1.10;;
12650;SDS011;6390;49.400;8.670;2022-08-23T04:34:08;1.65;;;1.30;;
12650;SDS011;6390;49.400;8.670;2022-08-23T04:36:36;3.38;;;1.52;;
12650;SDS011;6390;49.400;8.670;2022-08-23T04:39:05;1.80;;;1.38;;
12650;SDS011;6390;49.400;8.670;2022-08-23T04:41:33;1.52;;;1.33;;
12650;SDS011;6390;49.400;8.670;2022-08-23T04:44:18;1.33;;;1.23;;
12650;SDS011;6390;49.400;8.670;2022-08-23T04:46:44;1.58;;;1.20;;
12650;SDS011;6390;49.400;8.670;2022-08-23T04:49:11;1.90;;;1.42;;
12650;SDS011;6390;49.400;8.670;2022-08-23T04:51:37;2.70;;;1.65;;
12650;SDS011;6390;49.400;8.670;2022-08-23T04:54:03;1.55;;;1.38;;
12650;SDS011;6390;49.400;8.670;2022-08-23T04:56:29;1.80;;;1.40;;
12650;SDS011;6390;49.400;8.670;2022-08-23T04:58:55;1.70;;;1.30;;
12650;SDS011;6390;49.400;8.670;2022-08-23T05:01:22;2.78;;;1.30;;
12650;SDS011;6390;49.400;8.670;2022-08-23T05:03:51;2.00;;;1.30;;
12650;SDS011;6390;49.400;8.670;2022-08-23T05:06:19;3.25;;;1.30;;
12650;SDS011;6390;49.400;8.670;2022-08-23T05:08:45;2.15;;;1.50;;
12650;SDS011;6390;49.400;8.670;2022-08-23T05:11:12;2.33;;;1.52;;
12650;SDS011;6390;49.400;8.670;2022-08-23T05:13:38;1.73;;;1.50;;
12650;SDS011;6390;49.400;8.670;2022-08-23T05:16:05;2.22;;;1.40;;
12650;SDS011;6390;49.400;8.670;2022-08-23T05:18:32;1.95;;;1.40;;
12650;SDS011;6390;49.400;8.670;2022-08-23T05:20:58;1.85;;;1.45;;
12650;SDS011;6390;49.400;8.670;2022-08-23T05:23:25;1.55;;;1.40;;
12650;SDS011;6390;49.400;8.670;2022-08-23T05:25:52;1.98;;;1.40;;
12650;SDS011;6390;49.400;8.670;2022-08-23T05:28:20;2.40;;;1.63;;
12650;SDS011;6390;49.400;8.670;2022-08-23T05:30:59;2.13;;;1.42;;
12650;SDS011;6390;49.400;8.670;2022-08-23T05:33:29;3.75;;;1.30;;
12650;SDS011;6390;49.400;8.670;2022-08-23T05:35:57;2.17;;;1.50;;
12650;SDS011;6390;49.400;8.670;2022-08-23T05:38:23;1.50;;;1.40;;
12650;SDS011;6390;49.400;8.670;2022-08-23T05:40:50;1.80;;;1.50;;
12650;SDS011;6390;49.400;8.670;2022-08-23T05:43:18;2.55;;;1.73;;
12650;SDS011;6390;49.400;8.670;2022-08-23T05:45:45;2.95;;;1.83;;
12650;SDS011;6390;49.400;8.670;2022-08-23T05:48:12;7.68;;;1.88;;
12650;SDS011;6390;49.400;8.670;2022-08-23T05:50:40;4.65;;;1.90;;
12650;SDS011;6390;49.400;8.670;2022-08-23T05:53:06;3.30;;;1.77;;
12650;SDS011;6390;49.400;8.670;2022-08-23T05:55:36;3.78;;;1.83;;
12650;SDS011;6390;49.400;8.670;2022-08-23T05:58:03;2.80;;;1.75;;
12650;SDS011;6390;49.400;8.670;2022-08-23T06:00:29;2.90;;;1.67;;
12650;SDS011;6390;49.400;8.670;2022-08-23T06:02:55;3.90;;;1.80;;
12650;SDS011;6390;49.400;8.670;2022-08-23T06:05:21;4.05;;;1.50;;
12650;SDS011;6390;49.400;8.670;2022-08-23T06:07:48;3.00;;;1.70;;
12650;SDS011;6390;49.400;8.670;2022-08-23T06:10:14;2.85;;;1.45;;
12650;SDS011;6390;49.400;8.670;2022-08-23T06:12:41;4.40;;;1.75;;
12650;SDS011;6390;49.400;8.670;2022-08-23T06:15:07;2.30;;;1.40;;
12650;SDS011;6390;49.400;8.670;2022-08-23T06:17:34;2.85;;;1.60;;
12650;SDS011;6390;49.400;8.670;2022-08-23T06:20:00;4.30;;;1.52;;
12650;SDS011;6390;49.400;8.670;2022-08-23T06:22:28;1.60;;;1.50;;
12650;SDS011;6390;49.400;8.670;2022-08-23T06:24:54;4.75;;;1.88;;
12650;SDS011;6390;49.400;8.670;2022-08-23T06:27:20;3.13;;;1.73;;
12650;SDS011;6390;49.400;8.670;2022-08-23T06:29:47;1.95;;;1.52;;
12650;SDS011;6390;49.400;8.670;2022-08-23T06:32:13;2.85;;;1.63;;
12650;SDS011;6390;49.400;8.670;2022-08-23T06:34:39;2.03;;;1.85;;
12650;SDS011;6390;49.400;8.670;2022-08-23T06:39:35;2.85;;;1.65;;
12650;SDS011;6390;49.400;8.670;2022-08-23T06:42:07;2.85;;;1.67;;
12650;SDS011;6390;49.400;8.670;2022-08-23T06:44:36;1.60;;;1.50;;
12650;SDS011;6390;49.400;8.670;2022-08-23T06:47:03;2.47;;;2.00;;
12650;SDS011;6390;49.400;8.670;2022-08-23T06:49:31;2.55;;;1.67;;
12650;SDS011;6390;49.400;8.670;2022-08-23T06:51:58;2.33;;;1.50;;
12650;SDS011;6390;49.400;8.670;2022-08-23T06:54:26;1.80;;;1.35;;
12650;SDS011;6390;49.400;8.670;2022-08-23T06:56:55;2.33;;;1.67;;
12650;SDS011;6390;49.400;8.670;2022-08-23T06:59:22;5.00;;;1.58;;
12650;SDS011;6390;49.400;8.670;2022-08-23T07:02:07;2.15;;;1.55;;
12650;SDS011;6390;49.400;8.670;2022-08-23T07:04:37;1.98;;;1.30;;
12650;SDS011;6390;49.400;8.670;2022-08-23T07:07:05;2.33;;;1.33;;
12650;SDS011;6390;49.400;8.670;2022-08-23T07:09:32;3.17;;;1.65;;
12650;SDS011;6390;49.400;8.670;2022-08-23T07:11:59;2.25;;;1.30;;
12650;SDS011;6390;49.400;8.670;2022-08-23T07:14:26;2.28;;;1.60;;
12650;SDS011;6390;49.400;8.670;2022-08-23T07:16:54;3.85;;;1.45;;
12650;SDS011;6390;49.400;8.670;2022-08-23T07:19:24;3.20;;;1.33;;
12650;SDS011;6390;49.400;8.670;2022-08-23T07:21:52;1.73;;;1.40;;
12650;SDS011;6390;49.400;8.670;2022-08-23T07:24:19;1.48;;;1.30;;
12650;SDS011;6390;49.400;8.670;2022-08-23T07:26:47;2.50;;;1.48;;
12650;SDS011;6390;49.400;8.670;2022-08-23T07:29:14;2.78;;;1.33;;
12650;SDS011;6390;49.400;8.670;2022-08-23T07:31:43;1.63;;;1.30;;
12650;SDS011;6390;49.400;8.670;2022-08-23T07:34:13;1.40;;;1.15;;
12650;SDS011;6390;49.400;8.670;2022-08-23T07:36:40;1.55;;;1.10;;
12650;SDS011;6390;49.400;8.670;2022-08-23T07:39:08;1.75;;;1.00;;
12650;SDS011;6390;49.400;8.670;2022-08-23T07:41:35;3.95;;;1.00;;
12650;SDS011;6390;49.400;8.670;2022-08-23T07:44:03;1.73;;;1.00;;
12650;SDS011;6390;49.400;8.670;2022-08-23T07:46:32;1.45;;;0.90;;
12650;SDS011;6390;49.400;8.670;2022-08-23T07:49:00;1.15;;;0.98;;
12650;SDS011;6390;49.400;8.670;2022-08-23T07:51:28;1.25;;;1.15;;
12650;SDS011;6390;49.400;8.670;2022-08-23T07:53:56;1.58;;;1.10;;
12650;SDS011;6390;49.400;8.670;2022-08-23T07:56:24;2.85;;;1.10;;
12650;SDS011;6390;49.400;8.670;2022-08-23T07:58:50;1.30;;;0.88;;
12650;SDS011;6390;49.400;8.670;2022-08-23T08:01:18;1.13;;;0.90;;
12650;SDS011;6390;49.400;8.670;2022-08-23T08:03:48;1.88;;;1.00;;
12650;SDS011;6390;49.400;8.670;2022-08-23T08:06:20;1.40;;;1.10;;
12650;SDS011;6390;49.400;8.670;2022-08-23T08:08:55;3.58;;;1.13;;
12650;SDS011;6390;49.400;8.670;2022-08-23T08:11:23;2.03;;;1.02;;
12650;SDS011;6390;49.400;8.670;2022-08-23T08:13:53;2.05;;;0.90;;
12650;SDS011;6390;49.400;8.670;2022-08-23T08:16:20;1.00;;;0.90;;
12650;SDS011;6390;49.400;8.670;2022-08-23T08:18:56;3.35;;;1.10;;
12650;SDS011;6390;49.400;8.670;2022-08-23T08:21:24;1.35;;;0.90;;
12650;SDS011;6390;49.400;8.670;2022-08-23T08:23:52;2.40;;;1.20;;
12650;SDS011;6390;49.400;8.670;2022-08-23T08:26:18;1.35;;;1.08;;
12650;SDS011;6390;49.400;8.670;2022-08-23T08:28:45;1.55;;;1.15;;
12650;SDS011;6390;49.400;8.670;2022-08-23T08:31:11;1.42;;;1.00;;
12650;SDS011;6390;49.400;8.670;2022-08-23T08:33:38;1.38;;;1.08;;
12650;SDS011;6390;49.400;8.670;2022-08-23T08:36:05;1.08;;;0.98;;
12650;SDS011;6390;49.400;8.670;2022-08-23T08:38:33;1.20;;;1.00;;
12650;SDS011;6390;49.400;8.670;2022-08-23T08:41:17;1.20;;;1.10;;
12650;SDS011;6390;49.400;8.670;2022-08-23T08:46:51;2.05;;;1.20;;
12650;SDS011;6390;49.400;8.670;2022-08-23T08:49:28;1.27;;;1.17;;
12650;SDS011;6390;49.400;8.670;2022-08-23T08:54:55;1.48;;;0.90;;
12650;SDS011;6390;49.400;8.670;2022-08-23T08:57:28;1.80;;;1.00;;
12650;SDS011;6390;49.400;8.670;2022-08-23T09:00:03;1.92;;;1.02;;
12650;SDS011;6390;49.400;8.670;2022-08-23T09:02:35;2.80;;;1.10;;
12650;SDS011;6390;49.400;8.670;2022-08-23T09:05:06;1.02;;;1.00;;
12650;SDS011;6390;49.400;8.670;2022-08-23T09:08:01;1.00;;;0.90;;
12650;SDS011;6390;49.400;8.670;2022-08-23T09:10:45;1.77;;;1.10;;
12650;SDS011;6390;49.400;8.670;2022-08-23T09:16:51;1.67;;;1.20;;
12650;SDS011;6390;49.400;8.670;2022-08-23T09:19:22;1.70;;;1.05;;
12650;SDS011;6390;49.400;8.670;2022-08-23T09:21:56;1.83;;;1.13;;
12650;SDS011;6390;49.400;8.670;2022-08-23T09:24:29;3.03;;;1.20;;
12650;SDS011;6390;49.400;8.670;2022-08-23T09:26:55;3.10;;;1.10;;
12650;SDS011;6390;49.400;8.670;2022-08-23T09:29:24;1.20;;;1.10;;
12650;SDS011;6390;49.400;8.670;2022-08-23T09:31:56;1.55;;;1.10;;
12650;SDS011;6390;49.400;8.670;2022-08-23T09:39:47;1.63;;;1.20;;
12650;SDS011;6390;49.400;8.670;2022-08-23T09:42:37;1.20;;;1.10;;
12650;SDS011;6390;49.400;8.670;2022-08-23T09:45:05;2.20;;;1.20;;
12650;SDS011;6390;49.400;8.670;2022-08-23T09:47:53;2.33;;;1.20;;
12650;SDS011;6390;49.400;8.670;2022-08-23T09:53:02;2.63;;;1.10;;
12650;SDS011;6390;49.400;8.670;2022-08-23T09:55:39;2.60;;;1.10;;
12650;SDS011;6390;49.400;8.670;2022-08-23T09:58:16;1.42;;;1.10;;
12650;SDS011;6390;49.400;8.670;2022-08-23T10:00:59;1.90;;;1.15;;
12650;SDS011;6390;49.400;8.670;2022-08-23T10:03:37;1.17;;;1.08;;
12650;SDS011;6390;49.400;8.670;2022-08-23T10:06:05;2.00;;;1.20;;
12650;SDS011;6390;49.400;8.670;2022-08-23T10:08:36;1.30;;;1.10;;
12650;SDS011;6390;49.400;8.670;2022-08-23T10:11:16;1.20;;;1.10;;
12650;SDS011;6390;49.400;8.670;2022-08-23T10:13:45;2.33;;;1.20;;
12650;SDS011;6390;49.400;8.670;2022-08-23T10:16:25;2.10;;;1.10;;
12650;SDS011;6390;49.400;8.670;2022-08-23T10:22:03;3.03;;;1.10;;
12650;SDS011;6390;49.400;8.670;2022-08-23T10:24:45;1.13;;;1.02;;
12650;SDS011;6390;49.400;8.670;2022-08-23T10:31:01;0.95;;;0.95;;
12650;SDS011;6390;49.400;8.670;2022-08-23T10:33:44;1.23;;;1.08;;
12650;SDS011;6390;49.400;8.670;2022-08-23T10:39:44;1.80;;;1.02;;
12650;SDS011;6390;49.400;8.670;2022-08-23T10:42:38;1.45;;;0.98;;
12650;SDS011;6390;49.400;8.670;2022-08-23T10:45:32;1.60;;;1.00;;
12650;SDS011;6390;49.400;8.670;2022-08-23T10:48:17;1.10;;;1.00;;
12650;SDS011;6390;49.400;8.670;2022-08-23T10:51:03;1.75;;;1.10;;
12650;SDS011;6390;49.400;8.670;2022-08-23T10:56:14;1.83;;;1.10;;
12650;SDS011;6390;49.400;8.670;2022-08-23T10:58:52;1.55;;;1.35;;
12650;SDS011;6390;49.400;8.670;2022-08-23T11:01:36;1.48;;;0.80;;
12650;SDS011;6390;49.400;8.670;2022-08-23T11:04:31;1.80;;;1.08;;
12650;SDS011;6390;49.400;8.670;2022-08-23T11:07:15;1.48;;;1.08;;
12650;SDS011;6390;49.400;8.670;2022-08-23T11:12:35;1.05;;;1.00;;
12650;SDS011;6390;49.400;8.670;2022-08-23T11:15:27;1.17;;;1.08;;
12650;SDS011;6390;49.400;8.670;2022-08-23T11:18:05;3.05;;;1.00;;
12650;SDS011;6390;49.400;8.670;2022-08-23T11:23:16;1.00;;;0.90;;
12650;SDS011;6390;49.400;8.670;2022-08-23T11:26:03;1.50;;;1.10;;
12650;SDS011;6390;49.400;8.670;2022-08-23T11:28:43;1.10;;;1.00;;
12650;SDS011;6390;49.400;8.670;2022-08-23T11:33:59;1.30;;;1.20;;
12650;SDS011;6390;49.400;8.670;2022-08-23T11:36:36;3.50;;;1.10;;
12650;SDS011;6390;49.400;8.670;2022-08-23T11:39:05;1.10;;;1.00;;
12650;SDS011;6390;49.400;8.670;2022-08-23T11:44:25;1.02;;;0.98;;
12650;SDS011;6390;49.400;8.670;2022-08-23T11:47:00;1.10;;;1.10;;
12650;SDS011;6390;49.400;8.670;2022-08-23T11:58:25;1.20;;;1.10;;
12650;SDS011;6390;49.400;8.670;2022-08-23T12:01:17;1.27;;;1.17;;
12650;SDS011;6390;49.400;8.670;2022-08-23T12:03:58;1.88;;;1.30;;
12650;SDS011;6390;49.400;8.670;2022-08-23T12:06:36;1.88;;;1.20;;
12650;SDS011;6390;49.400;8.670;2022-08-23T12:16:59;1.25;;;1.13;;
12650;SDS011;6390;49.400;8.670;2022-08-23T12:19:30;2.50;;;1.15;;
12650;SDS011;6390;49.400;8.670;2022-08-23T12:22:06;1.50;;;1.13;;
12650;SDS011;6390;49.400;8.670;2022-08-23T12:27:36;1.23;;;1.10;;
12650;SDS011;6390;49.400;8.670;2022-08-23T12:30:18;1.50;;;1.27;;
12650;SDS011;6390;49.400;8.670;2022-08-23T12:39:28;1.58;;;1.23;;
12650;SDS011;6390;49.400;8.670;2022-08-23T12:41:30;1.45;;;1.35;;
12650;SDS011;6390;49.400;8.670;2022-08-23T12:44:19;1.30;;;1.20;;
12650;SDS011;6390;49.400;8.670;2022-08-23T12:46:48;1.60;;;1.20;;
12650;SDS011;6390;49.400;8.670;2022-08-23T12:49:29;2.35;;;1.20;;
12650;SDS011;6390;49.400;8.670;2022-08-23T12:51:59;4.13;;;1.50;;
12650;SDS011;6390;49.400;8.670;2022-08-23T12:54:39;1.30;;;1.20;;
12650;SDS011;6390;49.400;8.670;2022-08-23T12:57:13;2.03;;;1.30;;
12650;SDS011;6390;49.400;8.670;2022-08-23T12:59:46;1.30;;;1.20;;
12650;SDS011;6390;49.400;8.670;2022-08-23T13:02:41;2.55;;;1.30;;
12650;SDS011;6390;49.400;8.670;2022-08-23T13:08:20;2.50;;;1.25;;
12650;SDS011;6390;49.400;8.670;2022-08-23T13:10:52;3.08;;;1.33;;
12650;SDS011;6390;49.400;8.670;2022-08-23T13:13:20;2.20;;;1.20;;
12650;SDS011;6390;49.400;8.670;2022-08-23T13:15:57;2.03;;;1.30;;
12650;SDS011;6390;49.400;8.670;2022-08-23T13:18:27;1.52;;;1.38;;
12650;SDS011;6390;49.400;8.670;2022-08-23T13:23:47;1.35;;;1.05;;
12650;SDS011;6390;49.400;8.670;2022-08-23T13:26:22;1.40;;;1.30;;
12650;SDS011;6390;49.400;8.670;2022-08-23T13:31:53;4.25;;;1.48;;
12650;SDS011;6390;49.400;8.670;2022-08-23T13:36:56;1.25;;;1.10;;
12650;SDS011;6390;49.400;8.670;2022-08-23T13:39:28;1.42;;;1.33;;
12650;SDS011;6390;49.400;8.670;2022-08-23T13:41:55;1.98;;;1.20;;
12650;SDS011;6390;49.400;8.670;2022-08-23T13:44:22;1.33;;;1.08;;
12650;SDS011;6390;49.400;8.670;2022-08-23T13:46:48;1.40;;;1.23;;
12650;SDS011;6390;49.400;8.670;2022-08-23T13:49:15;1.30;;;1.20;;
12650;SDS011;6390;49.400;8.670;2022-08-23T13:52:28;1.30;;;1.10;;
12650;SDS011;6390;49.400;8.670;2022-08-23T13:54:34;1.80;;;1.30;;
12650;SDS011;6390;49.400;8.670;2022-08-23T13:57:02;1.23;;;1.10;;
12650;SDS011;6390;49.400;8.670;2022-08-23T13:59:35;1.10;;;1.02;;
12650;SDS011;6390;49.400;8.670;2022-08-23T14:02:06;1.95;;;1.13;;
12650;SDS011;6390;49.400;8.670;2022-08-23T14:04:38;1.50;;;1.40;;
12650;SDS011;6390;49.400;8.670;2022-08-23T14:07:06;2.30;;;1.20;;
12650;SDS011;6390;49.400;8.670;2022-08-23T14:09:34;1.85;;;1.30;;
12650;SDS011;6390;49.400;8.670;2022-08-23T14:12:02;1.92;;;1.10;;
12650;SDS011;6390;49.400;8.670;2022-08-23T14:14:33;1.50;;;1.30;;
12650;SDS011;6390;49.400;8.670;2022-08-23T14:17:00;1.13;;;1.02;;
12650;SDS011;6390;49.400;8.670;2022-08-23T14:19:27;1.65;;;1.10;;
12650;SDS011;6390;49.400;8.670;2022-08-23T14:21:55;1.52;;;1.10;;
12650;SDS011;6390;49.400;8.670;2022-08-23T14:24:23;2.10;;;1.13;;
12650;SDS011;6390;49.400;8.670;2022-08-23T14:26:50;1.40;;;1.00;;
12650;SDS011;6390;49.400;8.670;2022-08-23T14:29:16;2.75;;;1.17;;
12650;SDS011;6390;49.400;8.670;2022-08-23T14:31:44;1.40;;;1.05;;
12650;SDS011;6390;49.400;8.670;2022-08-23T14:34:10;1.40;;;1.30;;
12650;SDS011;6390;49.400;8.670;2022-08-23T14:36:36;1.60;;;1.30;;
12650;SDS011;6390;49.400;8.670;2022-08-23T14:39:02;1.30;;;1.10;;
12650;SDS011;6390;49.400;8.670;2022-08-23T14:41:28;1.42;;;1.33;;
12650;SDS011;6390;49.400;8.670;2022-08-23T14:43:55;1.63;;;1.23;;
12650;SDS011;6390;49.400;8.670;2022-08-23T14:46:21;1.50;;;1.30;;
12650;SDS011;6390;49.400;8.670;2022-08-23T14:48:48;1.27;;;1.17;;
12650;SDS011;6390;49.400;8.670;2022-08-23T14:51:25;1.70;;;1.30;;
12650;SDS011;6390;49.400;8.670;2022-08-23T14:53:57;1.73;;;1.50;;
12650;SDS011;6390;49.400;8.670;2022-08-23T14:56:24;1.30;;;1.20;;
12650;SDS011;6390;49.400;8.670;2022-08-23T14:58:50;2.45;;;1.23;;
12650;SDS011;6390;49.400;8.670;2022-08-23T15:01:18;1.50;;;1.35;;
12650;SDS011;6390;49.400;8.670;2022-08-23T15:03:44;3.42;;;1.20;;
12650;SDS011;6390;49.400;8.670;2022-08-23T15:06:12;1.20;;;1.10;;
12650;SDS011;6390;49.400;8.670;2022-08-23T15:08:39;1.40;;;1.10;;
12650;SDS011;6390;49.400;8.670;2022-08-23T15:11:06;1.17;;;1.08;;
12650;SDS011;6390;49.400;8.670;2022-08-23T15:13:34;2.17;;;1.10;;
12650;SDS011;6390;49.400;8.670;2022-08-23T15:16:02;1.27;;;1.00;;
12650;SDS011;6390;49.400;8.670;2022-08-23T15:18:31;1.30;;;1.13;;
12650;SDS011;6390;49.400;8.670;2022-08-23T15:20:58;1.73;;;1.10;;
12650;SDS011;6390;49.400;8.670;2022-08-23T15:23:24;2.45;;;1.10;;
12650;SDS011;6390;49.400;8.670;2022-08-23T15:25:51;1.23;;;1.13;;
12650;SDS011;6390;49.400;8.670;2022-08-23T15:28:18;1.23;;;1.13;;
12650;SDS011;6390;49.400;8.670;2022-08-23T15:30:46;1.42;;;1.23;;
12650;SDS011;6390;49.400;8.670;2022-08-23T15:33:13;1.40;;;1.30;;
12650;SDS011;6390;49.400;8.670;2022-08-23T15:35:41;1.20;;;1.10;;
12650;SDS011;6390;49.400;8.670;2022-08-23T15:38:10;4.28;;;1.33;;
12650;SDS011;6390;49.400;8.670;2022-08-23T15:40:38;1.60;;;1.23;;
12650;SDS011;6390;49.400;8.670;2022-08-23T15:43:04;2.40;;;1.23;;
12650;SDS011;6390;49.400;8.670;2022-08-23T15:45:31;1.40;;;1.30;;
12650;SDS011;6390;49.400;8.670;2022-08-23T15:47:58;3.20;;;1.38;;
12650;SDS011;6390;49.400;8.670;2022-08-23T15:50:29;1.50;;;1.40;;
12650;SDS011;6390;49.400;8.670;2022-08-23T15:52:58;1.52;;;1.30;;
12650;SDS011;6390;49.400;8.670;2022-08-23T15:55:26;1.55;;;1.38;;
12650;SDS011;6390;49.400;8.670;2022-08-23T15:57:55;1.77;;;1.20;;
12650;SDS011;6390;49.400;8.670;2022-08-23T16:00:25;1.35;;;1.25;;
12650;SDS011;6390;49.400;8.670;2022-08-23T16:02:52;1.60;;;1.42;;
12650;SDS011;6390;49.400;8.670;2022-08-23T16:05:19;2.50;;;1.42;;
12650;SDS011;6390;49.400;8.670;2022-08-23T16:07:53;1.90;;;1.33;;
12650;SDS011;6390;49.400;8.670;2022-08-23T16:10:20;1.95;;;1.50;;
12650;SDS011;6390;49.400;8.670;2022-08-23T16:12:46;2.63;;;1.73;;
12650;SDS011;6390;49.400;8.670;2022-08-23T16:15:13;1.70;;;1.60;;
12650;SDS011;6390;49.400;8.670;2022-08-23T16:17:39;2.00;;;1.60;;
12650;SDS011;6390;49.400;8.670;2022-08-23T16:20:06;1.50;;;1.38;;
12650;SDS011;6390;49.400;8.670;2022-08-23T16:22:36;1.48;;;1.38;;
12650;SDS011;6390;49.400;8.670;2022-08-23T16:25:03;2.45;;;1.40;;
12650;SDS011;6390;49.400;8.670;2022-08-23T16:27:29;2.95;;;1.60;;
12650;SDS011;6390;49.400;8.670;2022-08-23T16:29:55;1.40;;;1.30;;
12650;SDS011;6390;49.400;8.670;2022-08-23T16:32:21;1.52;;;1.35;;
12650;SDS011;6390;49.400;8.670;2022-08-23T16:34:48;1.42;;;1.30;;
12650;SDS011;6390;49.400;8.670;2022-08-23T16:37:14;4.30;;;1.60;;
12650;SDS011;6390;49.400;8.670;2022-08-23T16:39:40;2.58;;;1.35;;
12650;SDS011;6390;49.400;8.670;2022-08-23T16:42:09;2.80;;;1.70;;
12650;SDS011;6390;49.400;8.670;2022-08-23T16:44:35;3.85;;;1.80;;
12650;SDS011;6390;49.400;8.670;2022-08-23T16:47:02;2.33;;;2.13;;
12650;SDS011;6390;49.400;8.670;2022-08-23T16:49:30;3.67;;;1.55;;
12650;SDS011;6390;49.400;8.670;2022-08-23T16:51:58;3.95;;;2.10;;
12650;SDS011;6390;49.400;8.670;2022-08-23T16:54:25;3.15;;;2.10;;
12650;SDS011;6390;49.400;8.670;2022-08-23T16:56:52;1.98;;;1.63;;
12650;SDS011;6390;49.400;8.670;2022-08-23T16:59:19;1.40;;;1.30;;
12650;SDS011;6390;49.400;8.670;2022-08-23T17:01:46;1.50;;;1.40;;
12650;SDS011;6390;49.400;8.670;2022-08-23T17:04:21;2.13;;;1.40;;
12650;SDS011;6390;49.400;8.670;2022-08-23T17:06:49;2.45;;;1.70;;
12650;SDS011;6390;49.400;8.670;2022-08-23T17:09:20;2.83;;;1.65;;
12650;SDS011;6390;49.400;8.670;2022-08-23T17:11:48;1.65;;;1.55;;
12650;SDS011;6390;49.400;8.670;2022-08-23T17:14:15;2.83;;;1.90;;
12650;SDS011;6390;49.400;8.670;2022-08-23T17:16:42;2.92;;;1.58;;
12650;SDS011;6390;49.400;8.670;2022-08-23T17:19:09;1.77;;;1.30;;
12650;SDS011;6390;49.400;8.670;2022-08-23T17:21:37;2.55;;;1.90;;
12650;SDS011;6390;49.400;8.670;2022-08-23T17:24:04;4.72;;;3.58;;
12650;SDS011;6390;49.400;8.670;2022-08-23T17:26:30;4.82;;;2.97;;
12650;SDS011;6390;49.400;8.670;2022-08-23T17:28:57;5.50;;;3.22;;
12650;SDS011;6390;49.400;8.670;2022-08-23T17:31:23;2.95;;;2.28;;
12650;SDS011;6390;49.400;8.670;2022-08-23T17:33:50;2.53;;;1.60;;
12650;SDS011;6390;49.400;8.670;2022-08-23T17:36:26;2.22;;;2.03;;
12650;SDS011;6390;49.400;8.670;2022-08-23T17:38:57;2.22;;;1.30;;
12650;SDS011;6390;49.400;8.670;2022-08-23T17:41:24;3.55;;;1.67;;
12650;SDS011;6390;49.400;8.670;2022-08-23T17:43:52;3.17;;;1.70;;
12650;SDS011;6390;49.400;8.670;2022-08-23T17:46:19;2.47;;;1.40;;
12650;SDS011;6390;49.400;8.670;2022-08-23T17:48:45;1.88;;;1.23;;
12650;SDS011;6390;49.400;8.670;2022-08-23T17:51:11;4.90;;;3.65;;
12650;SDS011;6390;49.400;8.670;2022-08-23T17:53:37;3.90;;;3.25;;
12650;SDS011;6390;49.400;8.670;2022-08-23T17:56:04;6.53;;;4.10;;
12650;SDS011;6390;49.400;8.670;2022-08-23T17:58:30;9.57;;;4.05;;
12650;SDS011;6390;49.400;8.670;2022-08-23T18:00:56;5.78;;;3.20;;
12650;SDS011;6390;49.400;8.670;2022-08-23T18:03:22;7.30;;;4.40;;
12650;SDS011;6390;49.400;8.670;2022-08-23T18:05:48;15.40;;;12.55;;
12650;SDS011;6390;49.400;8.670;2022-08-23T18:08:14;11.65;;;9.35;;
12650;SDS011;6390;49.400;8.670;2022-08-23T18:10:41;7.88;;;5.60;;
12650;SDS011;6390;49.400;8.670;2022-08-23T18:13:07;5.75;;;3.30;;
12650;SDS011;6390;49.400;8.670;2022-08-23T18:15:33;5.22;;;2.80;;
12650;SDS011;6390;49.400;8.670;2022-08-23T18:17:59;5.18;;;3.58;;
12650;SDS011;6390;49.400;8.670;2022-08-23T18:20:28;7.63;;;4.60;;
12650;SDS011;6390;49.400;8.670;2022-08-23T18:22:55;5.40;;;3.47;;
12650;SDS011;6390;49.400;8.670;2022-08-23T18:25:22;3.28;;;2.72;;
12650;SDS011;6390;49.400;8.670;2022-08-23T18:27:49;2.20;;;1.75;;
12650;SDS011;6390;49.400;8.670;2022-08-23T18:30:31;2.05;;;1.60;;
12650;SDS011;6390;49.400;8.670;2022-08-23T18:32:59;2.25;;;1.50;;
12650;SDS011;6390;49.400;8.670;2022-08-23T18:35:26;2.25;;;1.33;;
12650;SDS011;6390;49.400;8.670;2022-08-23T18:37:54;2.63;;;1.83;;
12650;SDS011;6390;49.400;8.670;2022-08-23T18:40:22;2.83;;;1.40;;
12650;SDS011;6390;49.400;8.670;2022-08-23T18:42:50;3.05;;;1.58;;
12650;SDS011;6390;49.400;8.670;2022-08-23T18:45:16;2.03;;;1.40;;
12650;SDS011;6390;49.400;8.670;2022-08-23T18:47:43;1.88;;;1.45;;
12650;SDS011;6390;49.400;8.670;2022-08-23T18:50:09;3.08;;;1.75;;
12650;SDS011;6390;49.400;8.670;2022-08-23T18:52:37;6.22;;;3.08;;
12650;SDS011;6390;49.400;8.670;2022-08-23T18:55:04;5.75;;;3.85;;
12650;SDS011;6390;49.400;8.670;2022-08-23T18:57:31;4.93;;;3.40;;
12650;SDS011;6390;49.400;8.670;2022-08-23T18:59:57;3.78;;;2.60;;
12650;SDS011;6390;49.400;8.670;2022-08-23T19:02:24;2.47;;;1.75;;
12650;SDS011;6390;49.400;8.670;2022-08-23T19:04:50;2.58;;;1.80;;
12650;SDS011;6390;49.400;8.670;2022-08-23T19:07:17;1.92;;;1.70;;
12650;SDS011;6390;49.400;8.670;2022-08-23T19:09:43;2.78;;;1.48;;
12650;SDS011;6390;49.400;8.670;2022-08-23T19:12:09;5.35;;;1.65;;
12650;SDS011;6390;49.400;8.670;2022-08-23T19:14:36;2.47;;;1.30;;
12650;SDS011;6390;49.400;8.670;2022-08-23T19:17:02;3.47;;;1.58;;
12650;SDS011;6390;49.400;8.670;2022-08-23T19:19:32;5.30;;;2.10;;
12650;SDS011;6390;49.400;8.670;2022-08-23T19:21:58;2.72;;;1.63;;
12650;SDS011;6390;49.400;8.670;2022-08-23T19:24:25;2.55;;;1.63;;
12650;SDS011;6390;49.400;8.670;2022-08-23T19:26:51;2.78;;;1.60;;
12650;SDS011;6390;49.400;8.670;2022-08-23T19:29:18;1.85;;;1.50;;
12650;SDS011;6390;49.400;8.670;2022-08-23T19:31:45;3.65;;;1.75;;
12650;SDS011;6390;49.400;8.670;2022-08-23T19:34:16;5.97;;;4.93;;
12650;SDS011;6390;49.400;8.670;2022-08-23T19:36:44;7.07;;;6.32;;
12650;SDS011;6390;49.400;8.670;2022-08-23T19:39:14;4.65;;;3.55;;